Map

Track Data

SID SEASON NUMBER BASIN SUBBASIN NAME ISO_TIME NATURE LAT LON WMO_WIND WMO_PRES WMO_AGENCY TRACK_TYPE DIST2LAND LANDFALL IFLAG USA_AGENCY USA_ATCF_ID USA_LAT USA_LON USA_RECORD USA_STATUS USA_WIND USA_PRES USA_SSHS USA_R34_NE USA_R34_SE USA_R34_SW USA_R34_NW USA_R50_NE USA_R50_SE USA_R50_SW USA_R50_NW USA_R64_NE USA_R64_SE USA_R64_SW USA_R64_NW USA_POCI USA_ROCI USA_RMW USA_EYE TOKYO_LAT TOKYO_LON TOKYO_GRADE TOKYO_WIND TOKYO_PRES TOKYO_R50_DIR TOKYO_R50_LONG TOKYO_R50_SHORT TOKYO_R30_DIR TOKYO_R30_LONG TOKYO_R30_SHORT TOKYO_LAND CMA_LAT CMA_LON CMA_CAT CMA_WIND CMA_PRES HKO_LAT HKO_LON HKO_CAT HKO_WIND HKO_PRES NEWDELHI_LAT NEWDELHI_LON NEWDELHI_GRADE NEWDELHI_WIND NEWDELHI_PRES NEWDELHI_CI NEWDELHI_DP NEWDELHI_POCI REUNION_LAT REUNION_LON REUNION_TYPE REUNION_WIND REUNION_PRES REUNION_TNUM REUNION_CI REUNION_RMW REUNION_R34_NE REUNION_R34_SE REUNION_R34_SW REUNION_R34_NW REUNION_R50_NE REUNION_R50_SE REUNION_R50_SW REUNION_R50_NW REUNION_R64_NE REUNION_R64_SE REUNION_R64_SW REUNION_R64_NW BOM_LAT BOM_LON BOM_TYPE BOM_WIND BOM_PRES BOM_TNUM BOM_CI BOM_RMW BOM_R34_NE BOM_R34_SE BOM_R34_SW BOM_R34_NW BOM_R50_NE BOM_R50_SE BOM_R50_SW BOM_R50_NW BOM_R64_NE BOM_R64_SE BOM_R64_SW BOM_R64_NW BOM_ROCI BOM_POCI BOM_EYE BOM_POS_METHOD BOM_PRES_METHOD NADI_LAT NADI_LON NADI_CAT NADI_WIND NADI_PRES WELLINGTON_LAT WELLINGTON_LON WELLINGTON_WIND WELLINGTON_PRES DS824_LAT DS824_LON DS824_STAGE DS824_WIND DS824_PRES TD9636_LAT TD9636_LON TD9636_STAGE TD9636_WIND TD9636_PRES TD9635_LAT TD9635_LON TD9635_WIND TD9635_PRES TD9635_ROCI NEUMANN_LAT NEUMANN_LON NEUMANN_CLASS NEUMANN_WIND NEUMANN_PRES MLC_LAT MLC_LON MLC_CLASS MLC_WIND MLC_PRES USA_GUST BOM_GUST BOM_GUST_PER REUNION_GUST REUNION_GUST_PER USA_SEAHGT USA_SEARAD_NE USA_SEARAD_SE USA_SEARAD_SW USA_SEARAD_NW STORM_SPEED STORM_DIR
1980317N09118 1980 96 WP MM NOT_NAMED 1980-11-12 00:00:00 TS 8.70000 117.700 main 0 0 __O___________ -1 8.70000 117.700 0 1008 14 337
1980317N09118 1980 96 WP MM NOT_NAMED 1980-11-12 03:00:00 TS 9.33762 117.428 main 39 39 __P___________ -1 9.33762 117.428 0 1007 14 339
1980317N09118 1980 96 WP MM NOT_NAMED 1980-11-12 06:00:00 TS 10.0000 117.200 main 111 111 __O___________ -1 10.0000 117.200 0 1006 14 344
1980317N09118 1980 96 WP MM NOT_NAMED 1980-11-12 09:00:00 TS 10.6874 117.030 main 189 189 __P___________ -1 10.6874 117.030 0 1006 14 343
1980317N09118 1980 96 WP MM NOT_NAMED 1980-11-12 12:00:00 TS 11.3000 116.800 main 256 256 __O___________ -1 11.3000 116.800 0 19 1006 13 331
1980317N09118 1980 96 WP MM NOT_NAMED 1980-11-12 15:00:00 TS 11.7825 116.403 main 324 324 __P___________ -1 11.7825 116.403 0 19 1006 12 312
1980317N09118 1980 96 WP MM NOT_NAMED 1980-11-12 18:00:00 TS 12.1000 115.900 main 385 385 __O___________ -1 12.1000 115.900 0 19 1006 12 295
1980317N09118 1980 96 WP MM NOT_NAMED 1980-11-12 21:00:00 TS 12.2827 115.327 main 441 441 __P___________ -1 12.2827 115.327 0 21 1005 11 281
1980317N09118 1980 96 WP MM NOT_NAMED 1980-11-13 00:00:00 TS 12.3000 114.800 main 477 477 __O___________ -1 12.3000 114.800 1 23 1005 9 262
1980317N09118 1980 96 WP MM NOT_NAMED 1980-11-13 03:00:00 TS 12.1649 114.447 main 500 493 __P___________ -1 12.1649 114.447 1 26 1004 7 243
1980317N09118 1980 96 WP MM NOT_NAMED 1980-11-13 06:00:00 TS 12.0000 114.200 main 500 493 __O___________ -1 12.0000 114.200 1 29 1003 5 246
1980317N09118 1980 96 WP MM NOT_NAMED 1980-11-13 09:00:00 TS 11.9624 113.985 main 493 472 __P___________ -1 11.9624 113.985 1 29 1003 4 270
1980317N09118 1980 96 WP MM NOT_NAMED 1980-11-13 12:00:00 TS 12.0000 113.800 main 472 449 __O___________ -1 12.0000 113.800 1 29 1003 4 287
1980317N09118 1980 96 WP MM NOT_NAMED 1980-11-13 15:00:00 TS 12.0775 113.593 main 449 426 __P___________ -1 12.0775 113.593 1 29 1003 4 297
1980317N09118 1980 96 WP MM NOT_NAMED 1980-11-13 18:00:00 TS 12.2000 113.400 main 426 403 __O___________ -1 12.2000 113.400 1 29 1003 4 306
1980317N09118 1980 96 WP MM NOT_NAMED 1980-11-13 21:00:00 TS 12.3275 113.235 main 403 391 __P___________ -1 12.3275 113.235 1 29 1003 4 316
1980317N09118 1980 96 WP MM NOT_NAMED 1980-11-14 00:00:00 TS 12.5000 113.100 main 391 380 __O___________ -1 12.5000 113.100 1 29 1003 5 331
1980317N09118 1980 96 WP MM NOT_NAMED 1980-11-14 03:00:00 TS 12.7350 113.007 main 380 368 __P___________ -1 12.7350 113.007 1 29 1002 5 339
1980317N09118 1980 96 WP MM NOT_NAMED 1980-11-14 06:00:00 TS 13.0000 112.900 main 368 358 __O___________ -1 13.0000 112.900 1 29 1002 6 334
1980317N09118 1980 96 WP MM NOT_NAMED 1980-11-14 09:00:00 TS 13.2499 112.745 main 348 331 __P___________ -1 13.2499 112.745 1 29 1002 6 322
1980317N09118 1980 96 WP MM NOT_NAMED 1980-11-14 12:00:00 TS 13.5000 112.500 main 331 305 __O___________ -1 13.5000 112.500 1 29 1002 8 313
1980317N09118 1980 96 WP MM NOT_NAMED 1980-11-14 15:00:00 TS 13.8025 112.138 main 298 259 __P___________ -1 13.8025 112.138 1 29 1003 9 303
1980317N09118 1980 96 WP MM NOT_NAMED 1980-11-14 18:00:00 TS 14.0000 111.700 main 259 205 __O___________ -1 14.0000 111.700 1 29 1004 9 282
1980317N09118 1980 96 WP MM NOT_NAMED 1980-11-14 21:00:00 TS 13.9976 111.220 main 205 162 __P___________ -1 13.9976 111.220 1 29 1004 9 257
1980317N09118 1980 96 WP MM NOT_NAMED 1980-11-15 00:00:00 TS 13.8000 110.800 main 162 136 __O___________ -1 13.8000 110.800 1 29 1004 9 231
1980317N09118 1980 96 WP MM NOT_NAMED 1980-11-15 03:00:00 TS 13.4599 110.540 main 127 98 __P___________ -1 13.4599 110.540 1 26 1004 9 206
1980317N09118 1980 96 WP MM NOT_NAMED 1980-11-15 06:00:00 TS 13.0000 110.400 main 98 97 __O___________ -1 13.0000 110.400 1 23 1005 10 189
1980317N09118 1980 96 WP MM NOT_NAMED 1980-11-15 09:00:00 TS 12.4849 110.380 main 98 98 __P___________ -1 12.4849 110.380 1 23 1005 10 186
1980317N09118 1980 96 WP MM NOT_NAMED 1980-11-15 12:00:00 TS 12.0000 110.300 main 109 79 __O___________ -1 12.0000 110.300 1 23 1005 9 206
1980317N09118 1980 96 WP MM NOT_NAMED 1980-11-15 15:00:00 TS 11.6550 109.967 main 79 46 __P___________ -1 11.6550 109.967 1 23 1005 10 233
1980317N09118 1980 96 WP MM NOT_NAMED 1980-11-15 18:00:00 TS 11.4000 109.500 main 46 24 __O___________ -1 11.4000 109.500 1 23 1005 10 243
1980317N09118 1980 96 WP MM NOT_NAMED 1980-11-15 21:00:00 TS 11.1924 109.023 main 22 11 __P___________ -1 11.1924 109.023 1 21 1005 11 248
1980317N09118 1980 96 WP MM NOT_NAMED 1980-11-16 00:00:00 TS 11.0000 108.500 main 15 0 __O___________ -1 11.0000 108.500 0 19 1006 11 248
1980317N09118 1980 96 WP MM NOT_NAMED 1980-11-16 03:00:00 TS 10.7652 107.955 main 0 0 __P___________ -1 10.7652 107.955 0 1006 12 245
1980317N09118 1980 96 WP MM NOT_NAMED 1980-11-16 06:00:00 TS 10.5000 107.400 main 0 __O___________ -1 10.5000 107.400 0 1006 12 244

Digital Typhoon Data and Search

About IBTrACS Database

This database is a web-friendly format of International Best Track Archive for Climate Stewardship (IBTrACS), a global best track data archive curated by NOAA dating back to 1842.

Updated: 2021-12-03